Impacts TAF Board
For situational awareness. Not to be used for flight planning purposes.
IDs:

KLRU - Las Cruces Intl, NM, US

Issued at 1720 UTC 30 Oct 2020
Updated at 1727 UTC 30 Oct 2020
Potential Impact None Slight Moderate High
Time1715Z 30/18Z 30/19Z 30/20Z 30/21Z 30/22Z 30/23Z 31/00Z 31/01Z 31/02Z 31/03Z 31/04Z 31/05Z 31/06Z>>
Type OBS PRVL PRVL PRVL PRVL PRVL PRVL PRVL PRVL PRVL PRVL PRVL PRVL PRVL
VIS 10 >6 >6 >6 >6 >6 >6 >6 >6 >6 >6 >6 >6 >6
CIG -- -- -- -- -- -- -- -- -- -- -- -- -- --
Cover CLR FEW FEW FEW FEW FEW FEW FEW FEW FEW SCT SCT SCT SCT
FltCat VFR VFR VFR VFR VFR VFR VFR VFR VFR VFR VFR VFR VFR VFR
WX -- -- -- -- -- -- -- -- -- -- -- -- -- --
WDir 130 130 130 130 130 130 130 130 130 130 340 340 340 340
WSpd 6 6 6 6 6 6 6 6 6 6 4 4 4 4
WGst -- -- -- -- -- -- -- -- -- -- -- -- -- --
Raw TAF
KLRU 301720Z 3018/3118 13006KT P6SM FEW250
  FM310300 34004KT P6SM SCT250


Raw METAR
KLRU 301715Z AUTO 13006KT 10SM CLR 16/01 A3030 RMK AO2 T01550006
KLRU 301655Z AUTO 14005KT 10SM CLR 15/01 A3031 RMK AO2 T01520008
KLRU 301635Z AUTO 12005KT 10SM CLR 15/00 A3031 RMK AO2 T01470003
KLRU 301615Z AUTO 10003KT 10SM CLR 14/01 A3031 RMK AO2 T01440010
KLRU 301555Z AUTO 00000KT 10SM CLR 14/00 A3031 RMK AO2 T01390003
KLRU 301535Z AUTO 00000KT 10SM CLR 13/03 A3031 RMK AO2 T01260030
KLRU 301515Z AUTO 00000KT 10SM CLR 11/05 A3031 RMK AO2 T01070047
KLRU 301455Z AUTO 00000KT 10SM CLR 09/05 A3031 RMK AO2 T00920048
KLRU 301435Z AUTO 00000KT 10SM CLR 07/04 A3029 RMK AO2 T00740042

METAR Board
Radar Display
Forecast Discussion
For situational awareness. Not to be used for flight planning purposes.